Time;durP1;ratioP1;P1;durP2;ratioP2;P2;SDS_P1;SDS_P2;PMS_P1;PMS_P2;Temp;Humidity;BMP_temperature;BMP_pressure;BME280_temperature;BME280_humidity;BME280_pressure;Samples;Min_cycle;Max_cycle;Signal;HPM_P1;HPM_P2
2023/07/23 00:00:27;;;;;;;;;;;;;;;;;;;;;
2023/07/23 00:03:28;;;;;;;3.92;2.72;;;17.40;1.00;;;;;;5067944;28;20064;-90
2023/07/23 00:07:19;;;;;;;5.22;2.78;;;17.40;1.00;;;;;;5063494;28;20495;-94
2023/07/23 00:10:11;;;;;;;3.95;2.83;;;17.40;1.00;;;;;;5080031;28;20044;-92
2023/07/23 00:13:06;;;;;;;6.28;2.90;;;17.40;1.00;;;;;;5079784;28;20079;-92
2023/07/23 00:15:54;;;;;;;3.53;2.67;;;17.30;1.00;;;;;;5068002;28;20056;-90
2023/07/23 00:18:52;;;;;;;3.97;2.53;;;17.30;1.00;;;;;;5070958;28;20044;-93
2023/07/23 00:21:51;;;;;;;3.97;2.50;;;17.40;1.00;;;;;;5067133;28;20117;-92
2023/07/23 00:25:06;;;;;;;6.63;2.85;;;17.30;1.00;;;;;;5060566;28;20040;-92
2023/07/23 00:28:01;;;;;;;5.47;2.55;;;17.30;1.00;;;;;;5096000;28;20075;-92
2023/07/23 00:31:02;;;;;;;7.47;2.78;;;17.30;1.00;;;;;;5089584;28;20055;-93
2023/07/23 00:34:14;;;;;;;2.78;2.47;;;17.30;1.00;;;;;;5082590;28;20092;-90
2023/07/23 00:37:48;;;;;;;4.68;3.00;;;17.30;1.00;;;;;;5085292;28;20048;-87
2023/07/23 00:40:52;;;;;;;3.97;2.30;;;17.30;1.00;;;;;;5109299;28;20055;-93
2023/07/23 00:44:03;;;;;;;3.85;2.40;;;17.20;1.00;;;;;;5095770;28;20067;-92
2023/07/23 00:47:23;;;;;;;5.47;3.00;;;17.20;1.00;;;;;;5065462;28;20049;-94
2023/07/23 00:50:25;;;;;;;3.75;2.70;;;17.20;1.00;;;;;;5081572;28;20048;-92
2023/07/23 00:54:05;;;;;;;3.28;2.67;;;17.20;1.00;;;;;;4992374;28;20038;-93
2023/07/23 00:57:04;;;;;;;5.03;2.47;;;17.10;1.00;;;;;;4999809;28;20077;-91
2023/07/23 01:00:05;;;;;;;4.43;3.00;;;17.10;1.00;;;;;;4997405;28;20065;-91
2023/07/23 01:03:30;;;;;;;7.72;2.60;;;17.00;1.00;;;;;;5008249;28;20057;-92
2023/07/23 01:06:39;;;;;;;6.53;2.70;;;16.90;1.00;;;;;;4998178;28;20046;-93
2023/07/23 01:10:24;;;;;;;;;;;;;;;;;;;;;
2023/07/23 01:13:20;;;;;;;4.10;2.70;;;16.90;1.00;;;;;;5081276;28;20045;-91
2023/07/23 01:16:25;;;;;;;5.28;2.90;;;16.90;1.00;;;;;;5061063;28;20106;-93
2023/07/23 01:20:13;;;;;;;5.40;2.83;;;16.90;1.00;;;;;;5084141;28;20079;-93
2023/07/23 01:23:14;;;;;;;5.45;3.08;;;16.80;1.00;;;;;;4989157;28;20427;-93
2023/07/23 01:26:03;;;;;;;4.18;2.88;;;16.80;1.00;;;;;;5065269;28;20049;-89
2023/07/23 01:29:22;;;;;;;4.75;2.90;;;16.70;1.00;;;;;;5077278;28;20129;-93
2023/07/23 01:32:59;;;;;;;3.08;2.78;;;16.70;1.00;;;;;;4998398;28;20097;-91
2023/07/23 01:36:59;;;;;;;;;;;;;;;;;;;;;
2023/07/23 01:43:46;;;;;;;3.42;2.95;;;16.70;1.00;;;;;;4993327;28;20404;-90
2023/07/23 01:47:09;;;;;;;4.35;2.92;;;16.70;1.00;;;;;;4921727;29;20158;-92
2023/07/23 01:50:31;;;;;;;4.07;2.80;;;16.80;1.00;;;;;;4990242;28;20042;-91
2023/07/23 01:57:52;;;;;;;5.30;3.05;;;16.60;1.00;;;;;;5007959;28;20057;-91
2023/07/23 02:01:26;;;;;;;4.07;2.78;;;16.50;1.00;;;;;;4997634;28;20554;-93
2023/07/23 02:04:17;;;;;;;6.05;3.35;;;16.50;1.00;;;;;;4971958;28;20057;-90
2023/07/23 02:07:14;;;;;;;4.63;2.90;;;16.40;1.00;;;;;;5006263;28;20137;-94
2023/07/23 02:10:18;;;;;;;;;;;;;;;;;;;;;
2023/07/23 02:13:12;;;;;;;3.05;2.72;;;16.30;1.00;;;;;;4995598;28;20057;-92
2023/07/23 02:16:43;;;;;;;4.28;3.03;;;16.30;1.00;;;;;;4997598;28;20054;-94
2023/07/23 02:20:04;;;;;;;3.58;2.47;;;16.30;1.00;;;;;;5071001;28;20052;-93
2023/07/23 02:32:01;;;;;;;6.97;2.97;;;16.30;1.00;;;;;;4951946;29;20051;-91
2023/07/23 02:43:09;;;;;;;;;;;;;;;;;;;;;
2023/07/23 02:46:38;;;;;;;5.18;3.15;;;16.30;1.00;;;;;;4919209;29;20036;-90
2023/07/23 02:49:44;;;;;;;5.20;3.00;;;16.30;1.00;;;;;;4903614;29;20044;-92
2023/07/23 02:52:50;;;;;;;3.33;2.72;;;16.20;1.00;;;;;;4910196;29;20049;-90
2023/07/23 02:55:54;;;;;;;4.60;2.85;;;16.10;1.00;;;;;;4941068;29;20052;-89
2023/07/23 02:58:49;;;;;;;6.60;2.88;;;16.10;1.00;;;;;;4949953;28;20043;-90
2023/07/23 03:02:09;;;;;;;;;;;;;;;;;;;;;
2023/07/23 03:05:42;;;;;;;5.13;3.15;;;16.00;1.00;;;;;;4932313;29;20044;-94
2023/07/23 03:08:33;;;;;;;4.53;2.95;;;16.00;1.00;;;;;;4921776;29;20048;-93
2023/07/23 03:11:51;;;;;;;3.47;2.72;;;15.90;1.00;;;;;;4927354;29;20088;-92
2023/07/23 03:14:43;;;;;;;3.80;3.05;;;15.90;1.00;;;;;;5019544;28;20090;-89
2023/07/23 03:18:16;;;;;;;4.00;2.78;;;15.90;1.00;;;;;;5036324;28;20045;-91
2023/07/23 03:21:23;;;;;;;3.50;2.63;;;15.80;1.00;;;;;;4957310;28;20027;-92
2023/07/23 03:24:14;;;;;;;6.28;3.10;;;15.80;1.00;;;;;;4950566;29;20055;-91
2023/07/23 03:27:29;;;;;;;7.05;3.47;;;15.70;1.00;;;;;;4980226;28;20043;-93
2023/07/23 03:34:38;;;;;;;;;;;;;;;;;;;;;
2023/07/23 03:38:03;;;;;;;5.70;3.17;;;15.70;1.00;;;;;;4966409;28;20036;-93
2023/07/23 03:41:43;;;;;;;4.13;2.90;;;15.80;1.00;;;;;;4960077;28;20059;-92
2023/07/23 03:45:20;;;;;;;4.13;2.80;;;15.80;1.00;;;;;;4974962;28;20043;-94
2023/07/23 03:48:08;;;;;;;7.03;3.10;;;15.70;1.00;;;;;;4968801;28;20051;-92
2023/07/23 03:54:46;;;;;;;4.60;2.60;;;15.70;1.00;;;;;;5064835;28;20048;-92
2023/07/23 03:58:13;;;;;;;8.82;3.00;;;15.60;1.00;;;;;;5041216;28;20056;-93
2023/07/23 04:09:25;;;;;;;6.85;3.40;;;15.90;1.00;;;;;;5036225;28;20107;-93
2023/07/23 04:12:34;;;;;;;5.70;2.97;;;15.90;1.00;;;;;;4959188;28;20058;-92
2023/07/23 04:15:59;;;;;;;;;;;;;;;;;;;;;
2023/07/23 04:19:23;;;;;;;5.15;2.90;;;15.90;1.00;;;;;;4961895;28;20078;-93
2023/07/23 04:22:22;;;;;;;;;;;;;;;;;;;;;
2023/07/23 04:25:45;;;;;;;3.13;2.70;;;15.90;1.00;;;;;;4967349;28;20051;-92
2023/07/23 04:33:52;;;;;;;6.38;3.47;;;16.00;5.30;;;;;;4886873;29;20041;-93
2023/07/23 04:36:37;;;;;;;4.45;2.90;;;16.00;3.90;;;;;;4898355;29;20054;-93
2023/07/23 04:39:58;;;;;;;;;;;;;;;;;;;;;
2023/07/23 04:42:47;;;;;;;3.67;2.80;;;16.00;3.40;;;;;;4976648;28;20052;-91
2023/07/23 04:49:22;;;;;;;5.28;2.75;;;16.20;1.00;;;;;;5022807;28;20075;-92
2023/07/23 04:53:28;;;;;;;;;;;;;;;;;;;;;
2023/07/23 04:56:02;;;;;;;5.03;2.75;;;16.30;1.00;;;;;;5079696;28;20512;-93
2023/07/23 04:59:02;;;;;;;4.63;3.13;;;16.30;4.50;;;;;;5081946;28;20044;-93
2023/07/23 05:02:02;;;;;;;;;;;;;;;;;;;;;
2023/07/23 05:05:25;;;;;;;4.25;2.75;;;16.40;1.00;;;;;;4978807;28;20054;-91
2023/07/23 05:08:46;;;;;;;3.85;2.65;;;16.50;2.60;;;;;;4987186;28;20048;-94
2023/07/23 05:11:34;;;;;;;3.20;2.55;;;16.60;2.00;;;;;;5077334;28;20112;-91
2023/07/23 05:14:56;;;;;;;;;;;;;;;;;;;;;
2023/07/23 05:43:19;;;;;;;;;;;;;;;;;;;;;
2023/07/23 05:46:40;;;;;;;3.40;2.40;;;17.60;1.00;;;;;;4982636;28;20038;-93
2023/07/23 05:50:11;;;;;;;6.03;2.90;;;17.80;1.00;;;;;;4994088;28;20049;-92
2023/07/23 05:53:36;;;;;;;4.53;2.80;;;17.80;1.00;;;;;;4986888;28;20054;-92
2023/07/23 06:01:32;;;;;;;3.92;2.58;;;18.20;1.00;;;;;;4968094;28;20123;-91
2023/07/23 06:08:21;;;;;;;4.20;2.55;;;18.90;1.00;;;;;;5393159;22;20056;-92
2023/07/23 06:11:44;;;;;;;;;;;;;;;;;;;;;
2023/07/23 06:15:10;;;;;;;3.42;2.35;;;19.70;1.00;;;;;;5267066;22;20046;-92
2023/07/23 06:18:36;;;;;;;;;;;;;;;;;;;;;
2023/07/23 06:21:28;;;;;;;4.28;2.33;;;20.00;1.00;;;;;;5013815;28;20050;-92
2023/07/23 06:24:16;;;;;;;3.60;2.20;;;19.90;1.00;;;;;;5021149;28;20050;-88
2023/07/23 06:27:05;;;;;;;5.85;2.55;;;19.90;1.00;;;;;;5019734;28;20157;-89
2023/07/23 06:29:54;;;;;;;3.13;2.35;;;19.80;1.00;;;;;;5009934;28;20057;-92
2023/07/23 06:32:43;;;;;;;3.85;2.50;;;19.80;1.00;;;;;;5025438;28;20050;-90
2023/07/23 06:35:30;;;;;;;3.30;2.28;;;19.80;1.00;;;;;;5027615;28;20081;-92
2023/07/23 06:38:18;;;;;;;4.13;2.35;;;19.90;1.00;;;;;;5019417;28;20072;-91
2023/07/23 06:41:07;;;;;;;5.35;2.28;;;20.00;1.00;;;;;;5013947;28;20049;-92
2023/07/23 06:43:59;;;;;;;3.33;2.13;;;20.00;1.00;;;;;;5010809;28;20057;-91
2023/07/23 06:46:47;;;;;;;4.20;2.53;;;20.00;1.00;;;;;;5014988;28;20045;-92
2023/07/23 06:49:34;;;;;;;3.40;2.55;;;20.10;1.00;;;;;;5029080;28;20045;-91
2023/07/23 06:52:24;;;;;;;3.63;2.60;;;20.10;1.00;;;;;;5016138;28;20057;-91
2023/07/23 06:55:11;;;;;;;4.18;2.60;;;20.10;1.00;;;;;;5020120;28;20072;-93
2023/07/23 06:57:59;;;;;;;3.90;2.22;;;20.30;1.00;;;;;;5016299;28;20042;-92
2023/07/23 07:00:46;;;;;;;3.58;2.65;;;20.30;1.00;;;;;;5015979;28;20113;-93
2023/07/23 07:03:34;;;;;;;4.30;2.40;;;20.10;1.00;;;;;;5019012;28;20058;-90
2023/07/23 07:06:24;;;;;;;3.47;2.65;;;20.20;1.00;;;;;;5010775;28;20050;-92
2023/07/23 07:09:11;;;;;;;2.80;2.30;;;20.30;1.00;;;;;;5023204;28;20065;-93
2023/07/23 07:11:58;;;;;;;3.13;2.30;;;20.60;1.00;;;;;;5028387;28;20448;-94
2023/07/23 07:14:54;;;;;;;5.00;2.40;;;20.70;1.00;;;;;;5019464;28;20053;-89
2023/07/23 07:17:41;;;;;;;3.60;2.78;;;21.20;1.00;;;;;;5004799;28;20447;-90
2023/07/23 07:20:32;;;;;;;3.00;2.45;;;21.40;1.00;;;;;;5013753;28;20046;-90
2023/07/23 07:23:24;;;;;;;4.63;2.20;;;21.70;1.00;;;;;;5012419;28;20489;-90
2023/07/23 07:27:15;;;;;;;3.78;2.63;;;22.00;1.00;;;;;;5022334;28;20044;-89
2023/07/23 07:30:05;;;;;;;2.70;1.90;;;22.30;1.00;;;;;;5010802;28;20053;-89
2023/07/23 07:32:56;;;;;;;3.25;2.38;;;22.30;1.00;;;;;;5019722;28;20046;-90
2023/07/23 07:36:01;;;;;;;3.53;2.42;;;22.00;1.00;;;;;;5010494;28;20056;-93
2023/07/23 07:39:08;;;;;;;2.78;2.30;;;21.90;1.00;;;;;;5018376;28;20065;-93
2023/07/23 07:41:59;;;;;;;4.90;2.72;;;22.10;1.00;;;;;;5014558;28;20054;-92
2023/07/23 07:44:50;;;;;;;3.13;2.33;;;22.20;1.00;;;;;;5025685;28;20057;-90
2023/07/23 07:47:44;;;;;;;2.97;2.33;;;22.40;1.00;;;;;;5016639;28;20748;-90
2023/07/23 07:50:32;;;;;;;3.72;2.25;;;22.90;1.00;;;;;;5018938;28;20478;-88
2023/07/23 07:53:31;;;;;;;4.28;2.60;;;22.70;1.00;;;;;;5025674;28;20060;-90
2023/07/23 07:56:25;;;;;;;3.28;2.60;;;22.60;1.00;;;;;;5032871;28;20061;-88
2023/07/23 07:59:50;;;;;;;;;;;;;;;;;;;;;
2023/07/23 08:04:02;;;;;;;;;;;;;;;;;;;;;
2023/07/23 08:07:09;;;;;;;3.20;2.60;;;22.90;1.00;;;;;;5015548;28;20034;-89
2023/07/23 08:10:01;;;;;;;3.30;2.28;;;23.00;1.00;;;;;;5030879;28;20149;-89
2023/07/23 08:12:53;;;;;;;4.75;2.28;;;22.90;1.00;;;;;;5018300;28;20045;-93
2023/07/23 08:15:44;;;;;;;4.28;2.13;;;22.90;1.00;;;;;;5018843;28;20125;-91
2023/07/23 08:18:49;;;;;;;4.32;2.08;;;23.10;1.00;;;;;;5017680;28;20046;-93
2023/07/23 08:22:10;;;;;;;2.92;2.30;;;23.50;1.00;;;;;;5021703;28;20060;-94
2023/07/23 08:24:59;;;;;;;4.38;1.98;;;23.60;1.00;;;;;;5018580;28;20065;-91
2023/07/23 08:28:09;;;;;;;5.63;2.30;;;23.50;1.00;;;;;;5009715;28;20566;-92
2023/07/23 08:31:00;;;;;;;6.15;2.03;;;23.60;1.00;;;;;;5033393;28;20053;-92
2023/07/23 08:33:52;;;;;;;3.58;1.98;;;23.20;1.00;;;;;;5018916;28;20091;-90
2023/07/23 08:37:02;;;;;;;;;;;;;;;;;;;;;
2023/07/23 08:40:29;;;;;;;2.30;2.10;;;23.40;1.00;;;;;;5017406;28;20479;-92
2023/07/23 08:43:47;;;;;;;3.47;1.95;;;23.10;1.00;;;;;;5006774;28;20046;-91
2023/07/23 08:47:08;;;;;;;4.75;2.28;;;22.90;1.00;;;;;;5008326;28;20049;-93
2023/07/23 08:49:57;;;;;;;2.33;1.80;;;22.80;1.00;;;;;;5012320;28;20459;-91
2023/07/23 08:52:49;;;;;;;;;;;23.00;1.00;;;;;;5014925;28;20057;-93
2023/07/23 08:55:50;;;;;;;2.97;2.20;;;22.80;1.00;;;;;;5018679;28;20286;-93
2023/07/23 08:58:43;;;;;;;2.75;2.10;;;23.00;1.00;;;;;;5034669;28;20038;-93
2023/07/23 09:01:40;;;;;;;3.47;2.20;;;23.50;1.00;;;;;;5016941;28;20046;-92
2023/07/23 09:04:33;;;;;;;3.47;1.88;;;23.80;1.00;;;;;;5028761;28;20038;-91
2023/07/23 09:07:21;;;;;;;2.22;1.58;;;24.30;1.00;;;;;;5016402;28;20038;-90
2023/07/23 09:10:15;;;;;;;2.83;1.60;;;24.60;1.00;;;;;;5015975;28;20125;-89
2023/07/23 09:13:18;;;;;;;4.38;1.73;;;24.80;1.00;;;;;;5022563;28;20065;-89
2023/07/23 09:16:09;;;;;;;1.70;1.60;;;23.90;1.00;;;;;;5007082;28;20061;-91
2023/07/23 09:18:58;;;;;;;3.60;2.05;;;24.00;1.00;;;;;;5029509;28;20355;-89
2023/07/23 09:21:49;;;;;;;3.72;1.90;;;23.80;1.00;;;;;;5011307;28;20127;-92
2023/07/23 09:24:39;;;;;;;3.45;1.70;;;23.70;1.00;;;;;;5029689;28;20042;-92
2023/07/23 09:27:36;;;;;;;2.97;1.98;;;23.70;1.00;;;;;;5016479;28;20053;-92
2023/07/23 09:30:27;;;;;;;3.80;1.55;;;24.00;1.00;;;;;;5016560;28;20057;-91
2023/07/23 09:33:27;;;;;;;2.33;1.67;;;24.20;1.00;;;;;;5014348;28;20046;-92
2023/07/23 09:36:44;;;;;;;1.75;1.65;;;23.90;1.00;;;;;;5004442;28;20053;-93
2023/07/23 09:39:37;;;;;;;3.03;1.77;;;23.80;1.00;;;;;;5014628;28;20061;-90
2023/07/23 09:42:26;;;;;;;2.95;1.60;;;24.00;1.00;;;;;;5016111;28;20065;-90
2023/07/23 09:45:16;;;;;;;2.70;2.00;;;23.90;1.00;;;;;;5016103;28;20053;-91
2023/07/23 09:48:10;;;;;;;2.03;1.60;;;23.60;1.00;;;;;;5012131;28;20050;-89
2023/07/23 09:51:03;;;;;;;1.95;1.50;;;23.50;1.00;;;;;;5015888;28;20041;-91
2023/07/23 09:53:52;;;;;;;2.03;1.67;;;24.60;1.00;;;;;;5019155;28;20042;-91
2023/07/23 09:56:42;;;;;;;1.70;1.55;;;25.20;1.00;;;;;;5002848;28;20112;-91
2023/07/23 09:59:33;;;;;;;1.95;1.70;;;25.40;1.00;;;;;;5029393;28;20391;-90
2023/07/23 10:02:27;;;;;;;2.92;1.80;;;25.60;1.00;;;;;;5017409;28;20046;-92
2023/07/23 10:05:23;;;;;;;4.05;1.77;;;26.00;1.00;;;;;;5026238;28;20032;-90
2023/07/23 10:08:12;;;;;;;3.05;1.45;;;26.20;1.00;;;;;;5038352;28;20104;-90
2023/07/23 10:11:00;;;;;;;3.08;1.52;;;26.30;1.00;;;;;;5023201;28;20050;-92
2023/07/23 10:13:53;;;;;;;2.85;2.00;;;26.00;1.00;;;;;;5027143;28;20042;-93
2023/07/23 10:16:46;;;;;;;;;;;25.60;1.00;;;;;;5015771;28;20064;-87
2023/07/23 10:19:39;;;;;;;2.42;1.60;;;24.60;1.00;;;;;;4995482;28;20274;-92
2023/07/23 10:22:39;;;;;;;4.03;1.50;;;24.30;1.00;;;;;;5016222;28;20084;-92
2023/07/23 10:25:30;;;;;;;1.92;1.70;;;24.70;1.00;;;;;;5015554;28;20367;-87
2023/07/23 10:28:23;;;;;;;3.10;1.73;;;24.40;1.00;;;;;;5008115;28;20042;-89
2023/07/23 10:31:28;;;;;;;4.07;1.80;;;25.00;1.00;;;;;;5018188;28;20034;-93
2023/07/23 10:34:22;;;;;;;3.20;1.67;;;25.40;1.00;;;;;;5015252;28;20468;-92
2023/07/23 10:37:18;;;;;;;2.55;1.85;;;25.60;1.00;;;;;;5016333;28;20045;-90
2023/07/23 10:40:35;;;;;;;2.10;1.63;;;26.30;1.00;;;;;;5028133;28;20577;-90
2023/07/23 10:43:50;;;;;;;3.50;1.92;;;26.50;1.00;;;;;;5010013;28;20064;-91
2023/07/23 10:46:37;;;;;;;2.45;1.77;;;26.90;1.00;;;;;;4999336;28;20038;-90
2023/07/23 10:49:29;;;;;;;4.05;1.70;;;26.90;1.00;;;;;;5017004;28;20337;-91
2023/07/23 10:52:25;;;;;;;8.80;1.92;;;26.80;1.00;;;;;;5029942;28;20378;-90
2023/07/23 10:55:31;;;;;;;1.95;1.80;;;26.60;1.00;;;;;;5015149;28;20049;-91
2023/07/23 10:58:29;;;;;;;2.35;2.03;;;26.60;1.00;;;;;;5013778;28;20054;-89
2023/07/23 11:01:25;;;;;;;3.08;2.03;;;26.70;1.00;;;;;;5020003;28;20046;-92
2023/07/23 11:04:18;;;;;;;5.10;2.38;;;26.70;1.00;;;;;;5022790;28;20375;-92
2023/07/23 11:07:24;;;;;;;3.22;1.98;;;26.70;1.00;;;;;;5021317;28;20073;-91
2023/07/23 11:10:20;;;;;;;2.40;2.20;;;27.10;1.00;;;;;;5024051;28;20053;-90
2023/07/23 11:13:08;;;;;;;4.25;2.65;;;26.90;1.00;;;;;;5013211;28;20060;-89
2023/07/23 11:15:56;;;;;;;3.60;2.28;;;26.90;1.00;;;;;;5023869;28;20045;-91
2023/07/23 11:18:44;;;;;;;2.80;2.28;;;27.00;1.00;;;;;;5025167;28;20057;-90
2023/07/23 11:21:33;;;;;;;3.42;2.33;;;26.80;1.00;;;;;;5024904;28;20050;-89
2023/07/23 11:24:22;;;;;;;3.60;2.30;;;27.00;1.00;;;;;;5018582;28;20364;-90
2023/07/23 11:27:10;;;;;;;4.10;2.00;;;27.10;1.00;;;;;;5016007;28;20391;-92
2023/07/23 11:30:01;;;;;;;2.60;2.00;;;27.60;1.00;;;;;;5031665;28;20045;-92
2023/07/23 11:32:52;;;;;;;3.22;1.83;;;28.30;1.00;;;;;;5012265;28;20392;-91
2023/07/23 11:35:49;;;;;;;2.60;2.15;;;28.90;1.00;;;;;;5027894;28;20045;-92
2023/07/23 11:38:43;;;;;;;3.90;2.42;;;28.10;1.00;;;;;;5012216;28;20046;-92
2023/07/23 11:41:33;;;;;;;4.70;2.53;;;28.10;1.00;;;;;;5018326;28;20092;-91
2023/07/23 11:44:28;;;;;;;2.90;2.28;;;27.90;1.00;;;;;;5031388;28;20124;-84
2023/07/23 11:47:18;;;;;;;4.13;2.65;;;27.70;1.00;;;;;;5016582;28;20132;-84
2023/07/23 11:50:07;;;;;;;2.92;2.28;;;27.70;1.00;;;;;;5009699;28;20139;-85
2023/07/23 11:53:02;;;;;;;2.10;1.90;;;27.10;1.00;;;;;;5017306;28;20045;-86
2023/07/23 11:55:50;;;;;;;2.70;2.30;;;27.10;1.00;;;;;;5015162;28;20744;-89
2023/07/23 11:58:37;;;;;;;2.78;2.17;;;26.60;1.00;;;;;;5024779;28;20042;-83
2023/07/23 12:01:28;;;;;;;2.85;2.20;;;26.80;1.00;;;;;;5016662;28;20053;-86
2023/07/23 12:04:16;;;;;;;2.75;2.15;;;26.80;1.00;;;;;;5016755;28;20413;-87
2023/07/23 12:07:06;;;;;;;3.70;2.25;;;26.40;1.00;;;;;;5005491;28;20469;-85
2023/07/23 12:09:54;;;;;;;5.82;2.53;;;26.60;1.00;;;;;;5010774;28;20159;-88
2023/07/23 12:12:48;;;;;;;4.05;2.47;;;27.10;1.00;;;;;;5016473;28;20489;-84
2023/07/23 12:15:37;;;;;;;3.70;2.42;;;27.40;1.00;;;;;;5016297;28;20042;-85
2023/07/23 12:18:28;;;;;;;3.70;2.33;;;27.00;1.00;;;;;;5013107;28;20057;-87
2023/07/23 12:21:43;;;;;;;3.35;2.35;;;26.60;1.00;;;;;;5012503;28;20049;-87
2023/07/23 12:24:32;;;;;;;4.80;2.38;;;26.40;1.00;;;;;;5015311;28;20110;-85
2023/07/23 12:27:22;;;;;;;2.40;2.10;;;26.00;1.00;;;;;;5016133;28;20041;-86
2023/07/23 12:30:09;;;;;;;3.85;2.33;;;25.60;1.00;;;;;;5029760;28;20060;-84
2023/07/23 12:33:02;;;;;;;5.60;2.45;;;25.60;1.00;;;;;;5003800;28;20045;-85
2023/07/23 12:35:50;;;;;;;2.95;2.20;;;25.50;1.00;;;;;;5014451;28;20057;-87
2023/07/23 12:38:38;;;;;;;3.40;2.33;;;25.60;1.00;;;;;;5010309;28;20045;-87
2023/07/23 12:41:26;;;;;;;2.55;2.00;;;25.60;1.00;;;;;;5016195;28;20054;-84
2023/07/23 12:44:13;;;;;;;3.40;2.67;;;25.40;1.00;;;;;;5012548;28;20050;-83
2023/07/23 12:47:03;;;;;;;2.47;2.28;;;25.20;1.00;;;;;;5015911;28;20125;-86
2023/07/23 12:49:50;;;;;;;4.65;2.80;;;25.10;1.00;;;;;;5011599;28;20104;-85
2023/07/23 12:52:37;;;;;;;4.75;2.17;;;25.10;1.00;;;;;;5028253;28;20104;-84
2023/07/23 12:55:25;;;;;;;4.05;2.03;;;25.20;1.00;;;;;;5018158;28;20050;-87
2023/07/23 12:58:15;;;;;;;1.98;1.77;;;25.20;1.00;;;;;;5017737;28;20108;-86
2023/07/23 13:01:02;;;;;;;2.20;2.00;;;25.10;1.00;;;;;;5012196;28;20092;-87
2023/07/23 13:03:51;;;;;;;2.75;2.15;;;25.00;1.00;;;;;;5006227;28;20034;-87
2023/07/23 13:06:38;;;;;;;2.80;2.53;;;25.20;1.00;;;;;;5016567;28;20053;-86
2023/07/23 13:09:25;;;;;;;3.92;2.50;;;25.20;1.00;;;;;;5019478;28;20046;-86
2023/07/23 13:12:15;;;;;;;6.35;2.28;;;25.00;1.00;;;;;;5015922;28;20081;-85
2023/07/23 13:15:03;;;;;;;4.13;2.38;;;25.20;1.00;;;;;;5010973;28;20100;-87
2023/07/23 13:17:51;;;;;;;3.17;2.20;;;25.30;1.00;;;;;;5005241;28;20058;-86
2023/07/23 13:20:41;;;;;;;2.55;2.25;;;25.20;1.00;;;;;;5027458;28;20431;-89
2023/07/23 13:23:29;;;;;;;5.80;2.70;;;25.10;1.00;;;;;;5009317;28;20133;-84
2023/07/23 13:26:20;;;;;;;8.65;3.80;;;25.10;1.00;;;;;;5018806;28;20080;-85
2023/07/23 13:29:09;;;;;;;4.80;3.20;;;25.10;1.00;;;;;;5018418;28;20049;-86
2023/07/23 13:31:57;;;;;;;5.18;2.97;;;25.40;1.00;;;;;;5018139;28;20169;-85
2023/07/23 13:34:44;;;;;;;6.85;3.13;;;26.00;1.00;;;;;;5020894;28;20049;-86
2023/07/23 13:37:32;;;;;;;10.30;4.15;;;26.60;1.00;;;;;;5027863;28;20101;-87
2023/07/23 13:40:21;;;;;;;8.35;4.55;;;26.90;1.00;;;;;;5033641;28;20053;-88
2023/07/23 13:43:10;;;;;;;7.75;4.00;;;27.00;1.00;;;;;;5021487;28;20081;-88
2023/07/23 13:45:57;;;;;;;8.20;4.07;;;26.70;1.00;;;;;;5020581;28;20042;-88
2023/07/23 13:48:48;;;;;;;6.90;4.15;;;26.30;1.00;;;;;;5018901;28;20058;-88
2023/07/23 13:51:40;;;;;;;6.57;3.83;;;26.30;1.00;;;;;;5013518;28;20042;-88
2023/07/23 13:54:30;;;;;;;7.05;4.45;;;26.10;1.00;;;;;;5017633;28;20498;-89
2023/07/23 13:57:18;;;;;;;7.25;3.70;;;25.90;1.00;;;;;;5031586;28;20081;-89
2023/07/23 14:00:06;;;;;;;7.30;4.28;;;25.90;1.00;;;;;;5016612;28;20143;-88
2023/07/23 14:02:56;;;;;;;10.15;4.32;;;25.60;1.00;;;;;;5017890;28;20042;-91
2023/07/23 14:05:43;;;;;;;6.50;3.72;;;25.50;1.00;;;;;;5029012;28;20072;-87
2023/07/23 14:08:34;;;;;;;7.32;3.97;;;25.50;1.00;;;;;;5014125;28;20546;-86
2023/07/23 14:11:24;;;;;;;7.32;4.07;;;25.40;1.00;;;;;;5015008;28;20046;-88
2023/07/23 14:14:12;;;;;;;4.88;3.45;;;25.40;1.00;;;;;;5022106;28;20050;-86
2023/07/23 14:17:00;;;;;;;5.65;3.38;;;25.40;1.00;;;;;;5013096;28;20050;-90
2023/07/23 14:19:47;;;;;;;5.40;4.05;;;25.20;1.00;;;;;;5015621;28;20103;-90
2023/07/23 14:22:39;;;;;;;8.02;3.95;;;25.20;1.00;;;;;;4999614;28;20447;-89
2023/07/23 14:25:29;;;;;;;5.05;4.22;;;25.10;1.00;;;;;;5012139;28;20105;-87
2023/07/23 14:28:16;;;;;;;5.32;3.70;;;25.20;1.00;;;;;;5010447;28;20069;-87
2023/07/23 14:31:04;;;;;;;5.65;4.20;;;25.10;1.00;;;;;;5027020;28;20474;-87
2023/07/23 14:33:52;;;;;;;7.13;4.60;;;25.10;1.00;;;;;;5017694;28;20143;-86
2023/07/23 14:36:39;;;;;;;5.82;3.83;;;25.00;1.00;;;;;;5017266;28;20048;-86
2023/07/23 14:39:27;;;;;;;7.75;4.03;;;24.90;1.00;;;;;;5016730;28;20148;-86
2023/07/23 14:42:14;;;;;;;6.00;3.78;;;24.90;1.00;;;;;;5017180;28;20125;-84
2023/07/23 14:45:04;;;;;;;8.10;4.13;;;24.90;1.00;;;;;;5008632;28;20104;-87
2023/07/23 14:47:52;;;;;;;5.55;4.20;;;24.90;1.00;;;;;;5026156;28;20050;-84
2023/07/23 14:50:40;;;;;;;9.27;4.03;;;24.70;1.00;;;;;;5013403;28;20045;-87
2023/07/23 14:53:27;;;;;;;5.47;4.18;;;24.60;1.00;;;;;;5021777;28;20048;-84
2023/07/23 14:56:18;;;;;;;7.60;4.65;;;24.60;1.00;;;;;;5026048;28;20105;-86
2023/07/23 14:59:05;;;;;;;5.88;3.67;;;24.50;1.00;;;;;;5042490;28;20045;-87
2023/07/23 15:02:01;;;;;;;5.45;4.40;;;24.50;1.00;;;;;;5019446;28;20046;-88
2023/07/23 15:04:51;;;;;;;6.18;3.97;;;24.50;1.00;;;;;;5033926;28;20046;-86
2023/07/23 15:07:39;;;;;;;6.65;4.53;;;24.40;1.00;;;;;;5018465;28;20424;-87
2023/07/23 15:10:26;;;;;;;7.10;4.47;;;24.40;1.00;;;;;;5022022;28;20542;-89
2023/07/23 15:13:14;;;;;;;6.90;4.70;;;24.40;1.00;;;;;;5039527;28;20076;-85
2023/07/23 15:16:04;;;;;;;7.00;4.80;;;24.50;1.00;;;;;;5037094;28;20111;-84
2023/07/23 15:18:56;;;;;;;5.72;4.35;;;24.40;1.00;;;;;;5024560;28;20050;-85
2023/07/23 15:21:45;;;;;;;7.82;5.10;;;24.40;1.00;;;;;;5021645;28;20050;-86
2023/07/23 15:24:35;;;;;;;8.90;6.07;;;24.30;1.00;;;;;;5014599;28;20061;-86
2023/07/23 15:27:24;;;;;;;8.80;5.25;;;24.30;1.00;;;;;;5029121;28;20057;-88
2023/07/23 15:30:12;;;;;;;8.13;5.40;;;24.30;1.00;;;;;;5013265;28;20342;-89
2023/07/23 15:33:00;;;;;;;7.93;5.40;;;24.20;1.00;;;;;;5008969;28;20172;-90
2023/07/23 15:35:49;;;;;;;10.68;5.70;;;24.20;1.00;;;;;;5018838;28;20049;-88
2023/07/23 15:38:36;;;;;;;7.22;5.45;;;24.30;1.00;;;;;;5021906;28;20050;-88
2023/07/23 15:41:24;;;;;;;8.13;5.60;;;24.40;1.00;;;;;;5013944;28;20049;-86
2023/07/23 15:44:15;;;;;;;7.72;5.50;;;24.40;1.00;;;;;;5020038;28;20065;-90
2023/07/23 15:47:02;;;;;;;9.70;6.90;;;24.40;1.00;;;;;;5013284;28;20080;-86
2023/07/23 15:49:50;;;;;;;9.80;7.00;;;24.40;1.00;;;;;;5008168;28;20061;-86
2023/07/23 15:52:37;;;;;;;13.00;7.60;;;24.40;1.00;;;;;;5018384;28;20042;-88
2023/07/23 15:55:25;;;;;;;9.63;6.70;;;24.40;1.00;;;;;;5026014;28;20057;-88
2023/07/23 15:58:14;;;;;;;10.80;7.47;;;24.40;1.00;;;;;;5009364;28;20046;-85
2023/07/23 16:01:40;;;;;;;10.65;7.55;;;24.40;1.00;;;;;;5019074;28;20049;-86
2023/07/23 16:04:30;;;;;;;11.75;6.93;;;24.30;1.00;;;;;;5015560;28;20084;-83
2023/07/23 16:12:50;;;;;;;11.85;8.60;;;24.10;1.00;;;;;;5374154;22;20523;-86
2023/07/23 16:16:22;;;;;;;8.57;6.13;;;24.00;1.00;;;;;;5107118;28;20062;-88
2023/07/23 16:19:40;;;;;;;10.43;6.47;;;23.90;1.00;;;;;;5087063;28;20055;-89
2023/07/23 16:22:53;;;;;;;8.65;5.95;;;23.80;1.00;;;;;;5078723;28;20059;-88
2023/07/23 16:26:01;;;;;;;10.40;6.03;;;23.70;1.00;;;;;;5075459;28;20143;-90
2023/07/23 16:29:01;;;;;;;10.77;6.43;;;23.70;1.00;;;;;;5072028;28;20043;-89
2023/07/23 16:33:19;;;;;;;;;;;;;;;;;;;;;
2023/07/23 16:36:15;;;;;;;9.82;6.50;;;23.50;1.00;;;;;;5066446;28;20041;-85
2023/07/23 16:39:14;;;;;;;8.88;6.22;;;23.60;1.00;;;;;;5072633;28;20056;-86
2023/07/23 16:42:06;;;;;;;8.82;5.78;;;23.50;1.00;;;;;;5069029;28;20051;-91
2023/07/23 16:45:11;;;;;;;8.32;5.15;;;23.50;1.00;;;;;;5080140;28;20040;-91
2023/07/23 16:48:12;;;;;;;8.82;5.88;;;23.50;1.00;;;;;;5067483;28;20041;-88
2023/07/23 16:51:05;;;;;;;8.27;6.03;;;23.50;1.00;;;;;;5072714;28;20047;-86
2023/07/23 16:54:03;;;;;;;7.78;5.55;;;23.50;1.00;;;;;;5071256;28;20044;-86
2023/07/23 16:56:51;;;;;;;7.55;5.60;;;23.40;1.00;;;;;;5072237;28;20041;-87
2023/07/23 16:59:41;;;;;;;8.93;5.75;;;23.40;1.00;;;;;;5066494;28;20040;-86
2023/07/23 17:02:28;;;;;;;6.72;5.25;;;23.50;1.00;;;;;;5069817;28;20052;-84
2023/07/23 17:05:16;;;;;;;8.85;6.25;;;23.50;1.00;;;;;;5057856;28;20037;-86
2023/07/23 17:08:04;;;;;;;9.18;5.82;;;23.50;1.00;;;;;;5065022;28;20494;-84
2023/07/23 17:10:54;;;;;;;8.38;5.75;;;23.50;1.00;;;;;;5085274;28;20060;-87
2023/07/23 17:13:41;;;;;;;9.85;5.78;;;23.60;1.00;;;;;;5073900;28;20041;-86
2023/07/23 17:16:29;;;;;;;8.32;5.85;;;23.50;1.00;;;;;;5075693;28;21411;-85
2023/07/23 17:19:20;;;;;;;8.35;5.35;;;23.50;1.00;;;;;;5051155;28;20079;-85
2023/07/23 17:22:07;;;;;;;8.88;5.22;;;23.60;1.00;;;;;;5046865;28;20049;-85
2023/07/23 17:24:57;;;;;;;8.75;5.65;;;23.70;1.00;;;;;;5051292;28;20133;-88
2023/07/23 17:27:47;;;;;;;8.70;5.22;;;23.70;1.00;;;;;;5064010;28;20041;-84
2023/07/23 17:30:34;;;;;;;10.13;5.90;;;23.60;1.00;;;;;;5063179;28;20395;-85
2023/07/23 17:33:24;;;;;;;10.55;6.28;;;23.60;1.00;;;;;;5067972;28;20049;-84
2023/07/23 17:36:14;;;;;;;8.43;5.65;;;23.60;1.00;;;;;;5052668;28;20045;-84
2023/07/23 17:39:01;;;;;;;9.25;5.80;;;23.70;1.00;;;;;;5053224;28;20037;-86